Time;durP1;ratioP1;P1;durP2;ratioP2;P2;SDS_P1;SDS_P2;PMS_P1;PMS_P2;Temp;Humidity;BMP_temperature;BMP_pressure;BME280_temperature;BME280_humidity;BME280_pressure;Samples;Min_cycle;Max_cycle;Signal;HPM_P1;HPM_P2
2023/03/14 00:01:14;;;;;;;0.60;0.60;;;;;;;-5.30;76.65;98973.88;4971899;28;20409;-78
2023/03/14 00:03:42;;;;;;;0.80;0.80;;;;;;;-5.29;76.67;98954.47;4971961;28;20054;-78
2023/03/14 00:06:09;;;;;;;0.70;0.70;;;;;;;-5.27;76.31;98953.34;4970727;28;20047;-77
2023/03/14 00:08:36;;;;;;;0.70;0.70;;;;;;;-5.26;76.07;98949.78;4971413;28;20058;-79
2023/03/14 00:11:06;;;;;;;0.80;0.80;;;;;;;-5.28;76.22;98937.75;4973906;28;20053;-78
2023/03/14 00:13:33;;;;;;;0.80;0.80;;;;;;;-5.26;76.32;98943.69;4991231;28;20888;-78
2023/03/14 00:16:05;;;;;;;0.75;0.75;;;;;;;-5.25;76.02;98919.84;4991406;28;20046;-79
2023/03/14 00:18:32;;;;;;;0.80;0.80;;;;;;;-5.23;76.11;98911.81;4989934;28;20413;-77
2023/03/14 00:21:00;;;;;;;0.75;0.75;;;;;;;-5.18;76.30;98903.50;4981611;28;20063;-78
2023/03/14 00:23:28;;;;;;;0.82;0.82;;;;;;;-5.08;75.93;98914.78;4972321;28;20047;-79
2023/03/14 00:26:04;;;;;;;0.77;0.77;;;;;;;-4.98;76.05;98901.59;4973547;28;20074;-79
2023/03/14 00:28:31;;;;;;;0.68;0.68;;;;;;;-4.89;75.62;98903.31;4971626;28;20058;-78
2023/03/14 00:30:58;;;;;;;0.80;0.80;;;;;;;-4.86;75.69;98901.22;4971494;28;20059;-78
2023/03/14 00:33:25;;;;;;;0.70;0.70;;;;;;;-4.85;75.76;98915.22;4970231;28;20053;-79
2023/03/14 00:35:57;;;;;;;0.73;0.73;;;;;;;-4.79;76.00;98894.38;4970726;28;20085;-77
2023/03/14 00:38:25;;;;;;;0.80;0.80;;;;;;;-4.80;76.72;98884.81;4971180;28;20569;-79
2023/03/14 00:40:52;;;;;;;0.60;0.60;;;;;;;-4.76;76.96;98902.94;4971603;28;20051;-79
2023/03/14 00:43:25;;;;;;;0.80;0.80;;;;;;;-4.81;77.45;98869.16;4969839;28;20057;-79
2023/03/14 00:45:54;;;;;;;0.65;0.65;;;;;;;-4.85;78.27;98871.28;4970293;28;20133;-79
2023/03/14 00:48:21;;;;;;;0.77;0.77;;;;;;;-4.91;78.92;98881.56;4969494;28;20078;-78
2023/03/14 00:50:48;;;;;;;0.52;0.52;;;;;;;-4.94;79.56;98864.25;4975858;28;20053;-78
2023/03/14 00:53:16;;;;;;;0.70;0.70;;;;;;;-4.94;80.23;98897.66;4989763;28;20046;-77
2023/03/14 00:55:44;;;;;;;0.65;0.65;;;;;;;-4.91;80.92;98889.47;4989353;28;20611;-79
2023/03/14 00:58:14;;;;;;;0.60;0.60;;;;;;;-4.91;81.47;98885.03;4973696;28;20514;-78
2023/03/14 01:00:42;;;;;;;0.80;0.80;;;;;;;-4.92;82.28;98877.28;4989710;28;20061;-78
2023/03/14 01:03:10;;;;;;;0.68;0.68;;;;;;;-4.94;82.75;98871.34;4990974;28;20092;-79
2023/03/14 01:05:40;;;;;;;0.65;0.65;;;;;;;-4.92;83.09;98872.03;4989065;28;20052;-79
2023/03/14 01:08:08;;;;;;;0.70;0.70;;;;;;;-4.94;83.91;98863.44;4989592;28;20054;-79
2023/03/14 01:10:38;;;;;;;0.70;0.70;;;;;;;-4.93;84.35;98865.13;4990462;28;20426;-78
2023/03/14 01:13:06;;;;;;;0.70;0.70;;;;;;;-4.92;84.63;98864.13;4991051;28;20073;-77
2023/03/14 01:15:36;;;;;;;0.80;0.80;;;;;;;-4.91;85.17;98857.88;4990960;28;20060;-78
2023/03/14 01:18:03;;;;;;;0.70;0.70;;;;;;;-4.94;85.82;98871.34;4991116;28;20417;-78
2023/03/14 01:20:30;;;;;;;0.90;0.90;;;;;;;-4.90;86.61;98859.53;4990414;28;20058;-79
2023/03/14 01:22:57;;;;;;;0.73;0.73;;;;;;;-4.90;87.20;98854.28;4973770;28;20666;-77
2023/03/14 01:25:24;;;;;;;0.80;0.80;;;;;;;-4.89;87.87;98861.19;4973445;28;20133;-79
2023/03/14 01:27:51;;;;;;;0.73;0.73;;;;;;;-4.86;88.23;98837.19;4989388;28;20108;-79
2023/03/14 01:30:18;;;;;;;0.73;0.73;;;;;;;-4.84;89.02;98827.34;4989153;28;20046;-78
2023/03/14 01:32:46;;;;;;;0.80;0.80;;;;;;;-4.85;89.05;98807.28;4989458;28;20057;-78
2023/03/14 01:35:13;;;;;;;0.75;0.75;;;;;;;-4.80;89.38;98810.28;4993583;28;20050;-78
2023/03/14 01:37:40;;;;;;;0.55;0.55;;;;;;;-4.77;89.98;98807.34;4993512;28;20517;-79
2023/03/14 01:40:16;;;;;;;0.70;0.70;;;;;;;-4.77;90.36;98806.50;4993247;28;20112;-79
2023/03/14 01:42:56;;;;;;;0.70;0.70;;;;;;;-4.71;90.76;98805.91;4976714;28;20058;-79
2023/03/14 01:46:01;;;;;;;0.93;0.93;;;;;;;-4.67;90.98;98812.53;4992919;28;20050;-78
2023/03/14 01:48:42;;;;;;;0.70;0.70;;;;;;;-4.65;91.17;98794.78;4993533;28;20054;-78
2023/03/14 01:51:24;;;;;;;0.80;0.80;;;;;;;-4.62;91.66;98789.19;4992679;28;20054;-79
2023/03/14 01:53:54;;;;;;;0.80;0.80;;;;;;;-4.58;91.98;98758.94;4992625;28;20404;-78
2023/03/14 01:56:23;;;;;;;0.60;0.60;;;;;;;-4.52;92.67;98775.94;4992325;28;20046;-77
2023/03/14 01:58:51;;;;;;;0.90;0.90;;;;;;;-4.51;93.14;98754.69;4993711;28;20092;-77
2023/03/14 02:01:20;;;;;;;0.80;0.80;;;;;;;-4.45;93.93;98780.44;4992143;28;20073;-78
2023/03/14 02:03:54;;;;;;;0.52;0.52;;;;;;;-4.47;94.14;98760.50;4993926;28;20125;-78
2023/03/14 02:06:29;;;;;;;0.70;0.70;;;;;;;-4.47;94.38;98755.22;4992021;28;20050;-78
2023/03/14 02:09:00;;;;;;;0.60;0.60;;;;;;;-4.49;94.91;98760.63;4976159;28;20066;-79
2023/03/14 02:11:31;;;;;;;0.77;0.77;;;;;;;-4.43;95.46;98760.03;4972796;28;20051;-80
2023/03/14 02:14:05;;;;;;;0.80;0.80;;;;;;;-4.38;95.96;98747.22;4956603;28;20046;-79
2023/03/14 02:16:53;;;;;;;0.65;0.65;;;;;;;-4.41;96.31;98742.25;4972390;28;20046;-80
2023/03/14 02:19:32;;;;;;;0.63;0.63;;;;;;;-4.39;96.43;98742.91;4956862;28;20046;-79
2023/03/14 02:22:19;;;;;;;0.70;0.70;;;;;;;-4.39;96.69;98713.13;4988810;28;20046;-80
2023/03/14 02:25:21;;;;;;;0.70;0.70;;;;;;;-4.37;97.24;98735.69;4956750;28;20064;-79
2023/03/14 02:27:48;;;;;;;0.80;0.80;;;;;;;-4.35;97.49;98717.09;4973195;28;20053;-79
2023/03/14 02:30:27;;;;;;;0.80;0.80;;;;;;;-4.32;97.93;98724.69;4972976;28;20051;-79
2023/03/14 02:33:05;;;;;;;0.80;0.80;;;;;;;-4.30;98.03;98730.63;4973213;28;20043;-79
2023/03/14 02:35:46;;;;;;;0.73;0.73;;;;;;;-4.26;98.25;98705.59;4972850;28;20078;-79
2023/03/14 02:38:48;;;;;;;0.73;0.73;;;;;;;-4.23;98.33;98693.94;4972889;28;20514;-79
2023/03/14 02:41:16;;;;;;;0.70;0.70;;;;;;;-4.20;98.86;98685.72;4972895;28;20145;-80
2023/03/14 02:43:50;;;;;;;0.80;0.80;;;;;;;-4.16;99.14;98679.13;4991877;28;20050;-80
2023/03/14 02:46:20;;;;;;;0.70;0.70;;;;;;;-4.12;99.57;98654.13;4990891;28;20104;-79
2023/03/14 02:49:04;;;;;;;0.70;0.70;;;;;;;-4.09;99.77;98672.25;4993476;28;20058;-79
2023/03/14 02:51:32;;;;;;;0.70;0.70;;;;;;;-4.06;100.00;98682.47;4992138;28;20073;-79
2023/03/14 02:53:59;;;;;;;0.80;0.80;;;;;;;-4.05;100.00;98664.84;4976279;28;20050;-77
2023/03/14 02:56:26;;;;;;;0.82;0.82;;;;;;;-4.01;100.00;98672.28;4993280;28;20052;-78
2023/03/14 02:58:54;;;;;;;0.68;0.68;;;;;;;-3.96;100.00;98658.63;4992102;28;20042;-79
2023/03/14 03:01:31;;;;;;;0.63;0.63;;;;;;;-3.93;100.00;98658.28;4984351;28;20055;-79
2023/03/14 03:03:58;;;;;;;0.80;0.80;;;;;;;-3.88;100.00;98678.91;4974933;28;20057;-79
2023/03/14 03:06:25;;;;;;;0.80;0.80;;;;;;;-3.84;100.00;98690.81;4988329;28;20490;-79
2023/03/14 03:08:53;;;;;;;0.80;0.80;;;;;;;-3.79;100.00;98699.06;4992774;28;20144;-79
2023/03/14 03:11:20;;;;;;;0.75;0.75;;;;;;;-3.79;100.00;98686.69;4976278;28;20415;-80
2023/03/14 03:13:47;;;;;;;0.70;0.70;;;;;;;-3.74;100.00;98679.13;4992223;28;20050;-79
2023/03/14 03:16:15;;;;;;;0.80;0.80;;;;;;;-3.67;100.00;98631.00;4992112;28;20413;-79
2023/03/14 03:18:42;;;;;;;0.90;0.90;;;;;;;-3.64;100.00;98657.88;4992050;28;20408;-80
2023/03/14 03:21:09;;;;;;;0.70;0.70;;;;;;;-3.57;100.00;98650.13;4991747;28;20422;-80
2023/03/14 03:23:36;;;;;;;0.70;0.70;;;;;;;-3.51;100.00;98645.03;4993004;28;20145;-78
2023/03/14 03:26:05;;;;;;;0.80;0.80;;;;;;;-3.46;100.00;98644.53;4988185;28;20057;-80
2023/03/14 03:28:32;;;;;;;0.70;0.70;;;;;;;-3.42;100.00;98651.13;4973071;28;20055;-79
2023/03/14 03:31:07;;;;;;;0.77;0.77;;;;;;;-3.34;100.00;98623.91;4987185;28;20050;-79
2023/03/14 03:33:36;;;;;;;0.60;0.60;;;;;;;-3.27;100.00;98624.91;4976493;28;20050;-78
2023/03/14 03:36:04;;;;;;;0.60;0.60;;;;;;;-3.20;100.00;98614.53;4995031;28;20050;-80
2023/03/14 03:38:35;;;;;;;0.60;0.60;;;;;;;-3.18;100.00;98600.19;4979991;28;20058;-79
2023/03/14 03:41:07;;;;;;;0.80;0.80;;;;;;;-3.14;100.00;98588.31;4985099;28;20043;-82
2023/03/14 03:43:35;;;;;;;0.60;0.60;;;;;;;-3.08;100.00;98594.72;4990688;28;20046;-83
2023/03/14 03:46:05;;;;;;;0.80;0.80;;;;;;;-3.03;100.00;98607.44;4991061;28;20093;-82
2023/03/14 03:48:34;;;;;;;0.75;0.75;;;;;;;-3.01;100.00;98585.16;4974606;28;20054;-83
2023/03/14 03:51:04;;;;;;;0.80;0.80;;;;;;;-2.95;100.00;98587.09;4980961;28;20101;-78
2023/03/14 03:53:32;;;;;;;0.65;0.65;;;;;;;-2.92;100.00;98557.72;4982929;28;20050;-79
2023/03/14 03:56:10;;;;;;;0.90;0.90;;;;;;;-2.87;100.00;98576.50;4989341;28;20054;-78
2023/03/14 03:58:38;;;;;;;0.60;0.60;;;;;;;-2.81;100.00;98579.47;4983233;28;20094;-80
2023/03/14 04:01:06;;;;;;;0.88;0.88;;;;;;;-2.79;100.00;98583.59;4972634;28;20054;-80
2023/03/14 04:03:34;;;;;;;0.70;0.70;;;;;;;-2.74;100.00;98578.63;4972834;28;20482;-79
2023/03/14 04:06:06;;;;;;;0.80;0.80;;;;;;;-2.67;100.00;98576.94;4974742;28;20061;-79
2023/03/14 04:08:37;;;;;;;0.90;0.90;;;;;;;-2.65;100.00;98608.50;4967081;28;20141;-79
2023/03/14 04:11:08;;;;;;;0.80;0.80;;;;;;;-2.55;100.00;98600.38;4969390;28;20070;-80
2023/03/14 04:14:00;;;;;;;0.85;0.85;;;;;;;-2.55;100.00;98603.03;4985611;28;20141;-79
2023/03/14 04:16:31;;;;;;;0.70;0.70;;;;;;;-2.48;100.00;98574.91;4988816;28;20050;-81
2023/03/14 04:19:04;;;;;;;0.93;0.93;;;;;;;-2.45;100.00;98577.22;4973068;28;20129;-80
2023/03/14 04:21:32;;;;;;;0.90;0.90;;;;;;;-2.43;100.00;98568.13;4976988;28;20055;-79
2023/03/14 04:23:59;;;;;;;0.80;0.80;;;;;;;-2.32;100.00;98577.47;4974101;28;20731;-81
2023/03/14 04:26:30;;;;;;;0.90;0.90;;;;;;;-2.29;100.00;98563.09;4977642;28;20055;-79
2023/03/14 04:28:57;;;;;;;1.00;1.00;;;;;;;-2.27;100.00;98577.78;4986202;28;20689;-81
2023/03/14 04:31:27;;;;;;;0.90;0.90;;;;;;;-2.16;100.00;98565.19;4985590;28;20421;-81
2023/03/14 04:33:54;;;;;;;0.80;0.80;;;;;;;-2.14;100.00;98534.09;4976992;28;20576;-81
2023/03/14 04:36:29;;;;;;;;;;;;;;;-2.18;100.00;98541.53;4974386;28;20055;-81
2023/03/14 04:39:01;;;;;;;0.85;0.85;;;;;;;-2.13;100.00;98563.00;4969932;28;19926;-80
2023/03/14 04:41:29;;;;;;;1.00;1.00;;;;;;;-2.07;100.00;98527.94;4970258;28;20053;-81
2023/03/14 04:43:58;;;;;;;0.80;0.80;;;;;;;-2.08;100.00;98534.22;4954684;28;20062;-82
2023/03/14 04:46:27;;;;;;;0.90;0.90;;;;;;;-2.03;100.00;98538.97;4970407;28;20050;-82
2023/03/14 04:48:56;;;;;;;0.90;0.90;;;;;;;-1.99;100.00;98538.47;4980004;28;20053;-82
2023/03/14 04:51:27;;;;;;;1.10;1.10;;;;;;;-1.96;100.00;98510.84;4991251;28;20124;-82
2023/03/14 04:53:54;;;;;;;0.80;0.80;;;;;;;-1.84;100.00;98532.41;4989096;28;20086;-82
2023/03/14 04:56:33;;;;;;;1.00;1.00;;;;;;;-1.80;100.00;98552.22;4989663;28;20105;-81
2023/03/14 04:59:02;;;;;;;0.90;0.90;;;;;;;-1.82;100.00;98552.41;4989669;28;20137;-81
2023/03/14 05:01:34;;;;;;;0.85;0.85;;;;;;;-1.72;100.00;98533.66;4991015;28;20054;-82
2023/03/14 05:04:19;;;;;;;0.82;0.82;;;;;;;-1.65;100.00;98520.53;4991393;28;20058;-81
2023/03/14 05:06:54;;;;;;;0.90;0.90;;;;;;;-1.54;100.00;98528.88;4989638;28;20191;-81
2023/03/14 05:09:25;;;;;;;0.88;0.88;;;;;;;-1.45;100.00;98519.03;4989652;28;20091;-82
2023/03/14 05:12:30;;;;;;;1.05;1.05;;;;;;;-1.31;100.00;98454.69;4987527;28;20061;-83
2023/03/14 05:15:06;;;;;;;0.93;0.93;;;;;;;-1.24;100.00;98493.66;4971623;28;20062;-82
2023/03/14 05:17:50;;;;;;;0.90;0.90;;;;;;;-1.17;99.63;98484.81;4957651;28;20526;-82
2023/03/14 05:20:50;;;;;;;1.00;1.00;;;;;;;-1.12;98.91;98534.59;4988050;28;20453;-83
2023/03/14 05:23:36;;;;;;;0.90;0.90;;;;;;;-1.15;98.44;98503.19;4974607;28;20586;-83
2023/03/14 05:26:24;;;;;;;0.90;0.90;;;;;;;-1.11;98.08;98484.09;4983971;28;20517;-82
2023/03/14 05:29:20;;;;;;;0.77;0.77;;;;;;;-1.11;97.43;98488.59;4975649;28;20072;-82
2023/03/14 05:32:17;;;;;;;1.00;1.00;;;;;;;-1.10;96.86;98508.75;4968117;28;20062;-83
2023/03/14 05:35:05;;;;;;;0.90;0.90;;;;;;;-1.05;95.79;98477.25;4945981;28;20079;-83
2023/03/14 05:37:50;;;;;;;1.00;1.00;;;;;;;-0.92;95.59;98495.16;4955545;28;20055;-82
2023/03/14 05:40:17;;;;;;;1.00;1.00;;;;;;;-0.88;94.96;98465.47;4968549;28;20054;-83
2023/03/14 05:43:00;;;;;;;1.00;1.00;;;;;;;-0.82;94.52;98482.44;4952785;28;20129;-83
2023/03/14 05:45:49;;;;;;;0.80;0.80;;;;;;;-0.67;93.39;98498.34;4952228;28;20146;-82
2023/03/14 05:48:38;;;;;;;0.95;0.95;;;;;;;-0.62;92.72;98495.13;4929601;29;20569;-83
2023/03/14 05:51:12;;;;;;;0.90;0.90;;;;;;;-0.61;91.83;98532.03;4900746;29;20047;-82
2023/03/14 05:53:59;;;;;;;0.80;0.80;;;;;;;-0.58;91.33;98505.19;4916882;29;20051;-82
2023/03/14 05:57:00;;;;;;;1.00;1.00;;;;;;;-0.49;90.91;98488.16;4589110;28;9999751;-82
2023/03/14 05:59:28;;;;;;;0.90;0.90;;;;;;;-0.46;90.34;98519.63;4945597;29;20507;-82
2023/03/14 06:02:27;;;;;;;1.00;1.00;;;;;;;-0.39;89.07;98495.81;4922751;29;20055;-80
2023/03/14 06:05:04;;;;;;;0.82;0.82;;;;;;;-0.34;88.82;98490.75;4929965;29;20062;-82
2023/03/14 06:07:31;;;;;;;1.00;1.00;;;;;;;-0.28;88.39;98532.47;4927168;29;20518;-82
2023/03/14 06:09:59;;;;;;;0.90;0.90;;;;;;;-0.34;88.46;98477.50;4990574;28;20168;-83
2023/03/14 06:12:26;;;;;;;0.93;0.93;;;;;;;-0.17;88.04;98507.28;4993800;28;20124;-84
2023/03/14 06:14:53;;;;;;;0.95;0.95;;;;;;;-0.11;87.84;98490.59;4994782;28;20339;-83
2023/03/14 06:17:21;;;;;;;1.00;1.00;;;;;;;-0.04;86.96;98525.97;4999353;28;20062;-84
2023/03/14 06:20:00;;;;;;;1.00;1.00;;;;;;;-0.01;86.90;98474.38;4980490;28;20054;-84
2023/03/14 06:22:30;;;;;;;0.90;0.90;;;;;;;0.11;86.77;98504.72;4988277;28;20046;-83
2023/03/14 06:24:57;;;;;;;0.90;0.90;;;;;;;0.14;85.69;98487.59;4990431;28;20061;-85
2023/03/14 06:27:26;;;;;;;0.90;0.90;;;;;;;0.14;85.91;98482.28;4985778;28;20054;-79
2023/03/14 06:29:56;;;;;;;1.00;1.00;;;;;;;0.13;85.42;98475.34;4970957;28;20656;-80
2023/03/14 06:32:24;;;;;;;0.98;0.98;;;;;;;0.21;85.23;98478.66;4988130;28;20050;-80
2023/03/14 06:34:56;;;;;;;1.00;1.00;;;;;;;0.26;84.47;98501.19;4988256;28;20054;-83
2023/03/14 06:37:24;;;;;;;0.90;0.90;;;;;;;0.28;84.31;98502.63;4986847;28;20042;-83
2023/03/14 06:39:55;;;;;;;1.00;1.00;;;;;;;0.27;84.16;98482.38;4985926;28;20134;-81
2023/03/14 06:42:43;;;;;;;0.90;0.90;;;;;;;0.32;83.55;98481.81;4990810;28;20042;-82
2023/03/14 06:45:13;;;;;;;0.85;0.85;;;;;;;0.25;83.41;98479.09;4994198;28;20050;-83
2023/03/14 06:47:42;;;;;;;1.00;1.00;;;;;;;0.35;83.29;98463.66;4984766;28;20066;-81
2023/03/14 06:50:13;;;;;;;1.00;1.00;;;;;;;0.40;83.34;98468.41;4987878;28;20090;-83
2023/03/14 06:52:47;;;;;;;0.90;0.90;;;;;;;0.45;82.43;98479.25;4972779;28;20051;-81
2023/03/14 06:55:20;;;;;;;0.90;0.90;;;;;;;0.48;82.36;98462.13;4972912;28;20065;-82
2023/03/14 06:57:50;;;;;;;0.80;0.80;;;;;;;0.47;82.13;98449.88;4968904;28;20050;-82
2023/03/14 07:00:18;;;;;;;1.00;1.00;;;;;;;0.62;81.60;98469.19;4961166;28;20124;-81
2023/03/14 07:02:46;;;;;;;0.80;0.80;;;;;;;0.71;81.30;98470.69;4979757;28;20140;-82
2023/03/14 07:05:23;;;;;;;0.80;0.80;;;;;;;0.79;80.18;98477.69;4982862;28;20047;-83
2023/03/14 07:07:51;;;;;;;0.90;0.90;;;;;;;0.89;79.95;98491.44;4985290;28;20210;-81
2023/03/14 07:10:18;;;;;;;1.00;1.00;;;;;;;0.95;79.80;98485.34;4994420;28;20541;-82
2023/03/14 07:12:45;;;;;;;0.80;0.80;;;;;;;1.00;79.36;98487.41;4991914;28;20050;-83
2023/03/14 07:15:13;;;;;;;0.90;0.90;;;;;;;1.04;79.04;98489.50;4992671;28;20053;-82
2023/03/14 07:17:50;;;;;;;1.10;1.10;;;;;;;1.17;78.83;98488.75;4975985;28;20050;-82
2023/03/14 07:20:20;;;;;;;0.93;0.93;;;;;;;1.25;78.12;98495.72;4995901;28;20066;-84
2023/03/14 07:22:49;;;;;;;1.10;1.10;;;;;;;1.32;77.65;98482.44;4992552;28;20056;-84
2023/03/14 07:25:20;;;;;;;0.80;0.80;;;;;;;1.38;77.58;98492.31;4992476;28;20068;-84
2023/03/14 07:27:54;;;;;;;1.00;1.00;;;;;;;1.49;77.42;98502.38;4997196;28;20088;-85
2023/03/14 07:30:24;;;;;;;1.00;1.00;;;;;;;1.50;76.49;98496.06;4977798;28;20128;-85
2023/03/14 07:32:52;;;;;;;1.00;1.00;;;;;;;1.51;76.28;98487.84;4990673;28;20045;-84
2023/03/14 07:35:22;;;;;;;1.00;1.00;;;;;;;1.58;76.72;98503.03;4993683;28;20050;-84
2023/03/14 07:37:49;;;;;;;1.00;1.00;;;;;;;1.62;76.35;98497.13;5004216;28;20050;-82
2023/03/14 07:40:22;;;;;;;1.00;1.00;;;;;;;1.69;75.66;98516.56;4997196;28;20457;-84
2023/03/14 07:42:49;;;;;;;0.95;0.95;;;;;;;1.73;75.49;98501.03;4992804;28;20120;-83
2023/03/14 07:45:26;;;;;;;0.90;0.90;;;;;;;1.79;75.47;98491.44;5002044;28;20092;-81
2023/03/14 07:47:57;;;;;;;0.90;0.90;;;;;;;1.78;75.26;98503.09;5002756;28;20054;-82
2023/03/14 07:50:27;;;;;;;0.90;0.90;;;;;;;1.86;75.25;98505.59;4993702;28;20046;-82
2023/03/14 07:52:54;;;;;;;1.00;1.00;;;;;;;1.81;75.12;98492.06;5003296;28;20394;-82
2023/03/14 07:55:21;;;;;;;0.90;0.90;;;;;;;1.89;75.00;98481.22;4994609;28;20051;-82
2023/03/14 07:57:51;;;;;;;1.02;1.02;;;;;;;1.95;75.01;98483.09;4995839;28;20054;-83
2023/03/14 08:00:22;;;;;;;1.00;1.00;;;;;;;2.01;74.41;98481.47;4991122;28;20054;-81
2023/03/14 08:02:54;;;;;;;1.00;1.00;;;;;;;2.08;74.18;98475.13;4971575;28;20426;-84
2023/03/14 08:05:24;;;;;;;0.90;0.90;;;;;;;2.04;73.49;98500.50;4972532;28;20051;-83
2023/03/14 08:07:51;;;;;;;0.90;0.90;;;;;;;2.01;73.60;98516.06;4971184;28;20142;-81
2023/03/14 08:10:24;;;;;;;0.90;0.90;;;;;;;2.01;73.53;98514.22;4985657;28;20055;-83
2023/03/14 08:12:55;;;;;;;0.90;0.90;;;;;;;2.02;73.45;98512.38;4991903;28;20050;-83
2023/03/14 08:15:28;;;;;;;1.00;1.00;;;;;;;2.10;73.55;98510.34;4959280;28;20046;-82
2023/03/14 08:17:58;;;;;;;0.90;0.90;;;;;;;2.16;73.42;98514.06;4992007;28;20050;-83
2023/03/14 08:20:27;;;;;;;0.80;0.80;;;;;;;2.24;72.94;98515.69;4956954;28;20056;-83
2023/03/14 08:22:57;;;;;;;0.95;0.95;;;;;;;2.27;72.78;98510.78;4972462;28;20054;-81
2023/03/14 08:25:25;;;;;;;1.00;1.00;;;;;;;2.36;72.44;98488.25;4972424;28;20100;-83
2023/03/14 08:27:52;;;;;;;1.00;1.00;;;;;;;2.49;72.11;98500.75;4972171;28;20051;-84
2023/03/14 08:30:20;;;;;;;0.88;0.88;;;;;;;2.55;71.17;98517.75;4972192;28;20106;-84
2023/03/14 08:32:48;;;;;;;0.80;0.80;;;;;;;2.59;71.21;98495.03;4972255;28;20050;-85
2023/03/14 08:35:15;;;;;;;1.00;1.00;;;;;;;2.71;70.28;98513.84;4973215;28;20054;-83
2023/03/14 08:37:42;;;;;;;0.90;0.90;;;;;;;2.68;70.21;98479.63;4990807;28;20046;-81
2023/03/14 08:40:11;;;;;;;1.00;1.00;;;;;;;2.71;70.24;98489.88;4990463;28;20046;-82
2023/03/14 08:42:39;;;;;;;1.00;1.00;;;;;;;2.77;70.30;98478.41;4985186;28;20050;-82
2023/03/14 08:45:08;;;;;;;0.80;0.80;;;;;;;2.82;69.60;98507.94;4972688;28;20418;-83
2023/03/14 08:47:35;;;;;;;0.90;0.90;;;;;;;2.90;68.97;98501.56;4986366;28;20539;-82
2023/03/14 08:50:04;;;;;;;0.85;0.85;;;;;;;2.91;68.83;98493.38;4983247;28;20050;-84
2023/03/14 08:52:31;;;;;;;1.00;1.00;;;;;;;3.00;68.38;98505.44;4989858;28;20465;-81
2023/03/14 08:55:02;;;;;;;0.90;0.90;;;;;;;3.02;68.32;98486.56;4989965;28;20050;-81
2023/03/14 08:57:29;;;;;;;1.00;1.00;;;;;;;3.03;67.56;98505.00;4988643;28;20054;-82
2023/03/14 08:59:57;;;;;;;1.00;1.00;;;;;;;3.07;67.76;98496.63;4991253;28;20226;-81
2023/03/14 09:02:25;;;;;;;0.90;0.90;;;;;;;3.10;67.77;98505.00;4990987;28;20141;-82
2023/03/14 09:04:53;;;;;;;0.90;0.90;;;;;;;3.15;67.21;98483.88;4991118;28;20054;-82
2023/03/14 09:07:19;;;;;;;0.90;0.90;;;;;;;3.21;67.33;98493.69;4990938;28;20049;-81
2023/03/14 09:09:50;;;;;;;0.93;0.93;;;;;;;3.27;66.63;98502.72;4990850;28;20058;-82
2023/03/14 09:12:18;;;;;;;0.90;0.90;;;;;;;3.22;66.66;98481.19;4973999;28;20077;-81
2023/03/14 09:14:45;;;;;;;1.00;1.00;;;;;;;3.31;66.30;98490.59;4991003;28;20077;-82
2023/03/14 09:17:12;;;;;;;1.00;1.00;;;;;;;3.39;66.16;98493.03;4990792;28;20062;-83
2023/03/14 09:19:39;;;;;;;0.75;0.75;;;;;;;3.42;65.84;98497.13;4989220;28;20137;-81
2023/03/14 09:22:12;;;;;;;0.80;0.80;;;;;;;3.40;65.36;98494.66;4989856;28;20110;-82
2023/03/14 09:24:40;;;;;;;0.90;0.90;;;;;;;3.31;65.69;98513.78;4979017;28;20050;-82
2023/03/14 09:27:07;;;;;;;0.90;0.90;;;;;;;3.27;65.94;98489.38;4986841;28;20050;-84
2023/03/14 09:29:36;;;;;;;0.90;0.90;;;;;;;3.29;65.73;98507.81;4985209;28;20154;-79
2023/03/14 09:32:03;;;;;;;0.80;0.80;;;;;;;3.30;65.58;98518.28;4976854;28;20078;-80
2023/03/14 09:34:38;;;;;;;0.90;0.90;;;;;;;3.38;64.95;98499.38;5001998;28;20138;-80
2023/03/14 09:37:09;;;;;;;1.00;1.00;;;;;;;3.42;65.12;98499.81;4971983;28;20141;-80
2023/03/14 09:39:42;;;;;;;1.00;1.00;;;;;;;3.40;64.80;98488.53;4972164;28;20054;-82
2023/03/14 09:42:21;;;;;;;0.98;0.98;;;;;;;3.37;65.51;98519.09;4985668;28;20054;-81
2023/03/14 09:44:53;;;;;;;0.90;0.90;;;;;;;3.41;65.09;98495.47;4956595;28;20137;-81
2023/03/14 09:47:23;;;;;;;;;;;;;;;3.54;64.61;98486.59;4969947;28;20703;-81
2023/03/14 09:49:53;;;;;;;0.90;0.90;;;;;;;3.64;63.72;98486.97;4987255;28;19926;-82
2023/03/14 09:52:25;;;;;;;0.90;0.90;;;;;;;3.67;64.03;98486.53;4987896;28;20051;-79
2023/03/14 09:54:54;;;;;;;1.00;1.00;;;;;;;3.70;63.99;98483.47;4971565;28;20129;-81
2023/03/14 09:57:24;;;;;;;0.90;0.90;;;;;;;3.75;63.72;98470.31;4986814;28;20073;-81
2023/03/14 09:59:56;;;;;;;0.90;0.90;;;;;;;3.83;63.36;98478.06;4974819;28;20819;-82
2023/03/14 10:02:27;;;;;;;0.90;0.90;;;;;;;3.93;62.91;98477.59;4990982;28;20416;-83
2023/03/14 10:04:54;;;;;;;0.95;0.95;;;;;;;4.01;62.76;98489.88;4960768;28;20077;-85
2023/03/14 10:07:29;;;;;;;0.90;0.90;;;;;;;4.05;62.21;98491.06;4985231;28;20059;-81
2023/03/14 10:09:57;;;;;;;0.90;0.90;;;;;;;3.96;62.32;98503.03;4991196;28;20093;-82
2023/03/14 10:12:36;;;;;;;0.85;0.85;;;;;;;3.91;62.65;98501.81;4998142;28;20053;-81
2023/03/14 10:15:06;;;;;;;0.90;0.90;;;;;;;3.91;62.77;98493.81;4990932;28;20121;-81
2023/03/14 10:17:42;;;;;;;0.90;0.90;;;;;;;4.00;62.96;98482.88;4989451;28;20104;-82
2023/03/14 10:20:35;;;;;;;0.90;0.90;;;;;;;4.07;62.84;98476.47;4988183;28;20054;-80
2023/03/14 10:23:11;;;;;;;0.90;0.90;;;;;;;4.03;62.57;98469.94;4858474;28;10001398;-78
2023/03/14 10:25:44;;;;;;;0.80;0.80;;;;;;;4.00;62.94;98474.88;4970001;28;20264;-81
2023/03/14 10:28:45;;;;;;;0.90;0.90;;;;;;;3.99;63.17;98471.38;4978705;28;20153;-81
2023/03/14 10:31:15;;;;;;;0.90;0.90;;;;;;;3.94;63.37;98479.22;4976268;28;20051;-79
2023/03/14 10:33:58;;;;;;;0.80;0.80;;;;;;;4.01;63.55;98469.31;4970898;28;20051;-80
2023/03/14 10:36:28;;;;;;;0.82;0.82;;;;;;;4.01;63.65;98479.19;4985051;28;20050;-80
2023/03/14 10:39:22;;;;;;;0.80;0.80;;;;;;;4.09;63.62;98454.91;4984298;28;20056;-80
2023/03/14 10:42:17;;;;;;;0.82;0.82;;;;;;;4.19;63.29;98465.09;4988267;28;20050;-81
2023/03/14 10:44:51;;;;;;;0.90;0.90;;;;;;;4.21;63.33;98471.88;4990085;28;20053;-82
2023/03/14 10:47:21;;;;;;;0.90;0.90;;;;;;;4.24;62.13;98462.59;4972142;28;20050;-82
2023/03/14 10:49:51;;;;;;;0.90;0.90;;;;;;;4.37;62.07;98453.66;4997025;28;20054;-81
2023/03/14 10:52:22;;;;;;;0.80;0.80;;;;;;;4.48;61.62;98475.16;4977532;28;20121;-81
2023/03/14 10:55:11;;;;;;;0.90;0.90;;;;;;;4.57;60.77;98467.69;4970446;28;20059;-81
2023/03/14 10:57:39;;;;;;;0.80;0.80;;;;;;;4.62;61.02;98459.00;4971188;28;20129;-82
2023/03/14 11:00:21;;;;;;;0.90;0.90;;;;;;;4.73;60.41;98456.41;4980040;28;20105;-80
2023/03/14 11:02:52;;;;;;;0.80;0.80;;;;;;;4.76;59.21;98455.16;4972516;28;20086;-82
2023/03/14 11:05:26;;;;;;;0.88;0.88;;;;;;;4.74;59.64;98465.28;4971481;28;20516;-81
2023/03/14 11:08:04;;;;;;;0.90;0.90;;;;;;;4.82;59.10;98459.63;4976685;28;20049;-80
2023/03/14 11:10:37;;;;;;;0.90;0.90;;;;;;;4.89;58.32;98464.94;4984317;28;20082;-83
2023/03/14 11:13:31;;;;;;;0.80;0.80;;;;;;;5.08;58.28;98445.16;4977228;28;20048;-81
2023/03/14 11:16:23;;;;;;;0.90;0.90;;;;;;;5.06;58.02;98433.88;4970078;28;20137;-83
2023/03/14 11:19:09;;;;;;;0.90;0.90;;;;;;;5.14;57.45;98430.91;4972625;28;20056;-82
2023/03/14 11:22:03;;;;;;;0.90;0.90;;;;;;;5.17;57.26;98449.19;4988200;28;20062;-82
2023/03/14 11:24:45;;;;;;;0.80;0.80;;;;;;;5.11;57.58;98447.41;4989493;28;20046;-80
2023/03/14 11:27:23;;;;;;;0.80;0.80;;;;;;;5.12;57.45;98442.88;4989351;28;20046;-81
2023/03/14 11:30:01;;;;;;;0.90;0.90;;;;;;;5.04;57.82;98452.03;4995496;28;20046;-82
2023/03/14 11:32:40;;;;;;;0.80;0.80;;;;;;;5.04;57.47;98452.03;4996164;28;20070;-82
2023/03/14 11:35:30;;;;;;;0.90;0.90;;;;;;;5.10;57.32;98471.72;4994828;28;20506;-82
2023/03/14 11:38:13;;;;;;;0.90;0.90;;;;;;;5.22;56.70;98470.75;4983805;28;20046;-82
2023/03/14 11:40:41;;;;;;;0.80;0.80;;;;;;;5.31;56.29;98457.06;4996930;28;20074;-81
2023/03/14 11:43:15;;;;;;;0.80;0.80;;;;;;;5.36;56.36;98460.69;4987954;28;20571;-80
2023/03/14 11:45:48;;;;;;;0.80;0.80;;;;;;;5.44;55.49;98448.88;5005104;28;20080;-83
2023/03/14 11:48:40;;;;;;;0.80;0.80;;;;;;;5.45;55.52;98466.56;4997408;28;20046;-81
2023/03/14 11:51:21;;;;;;;0.90;0.90;;;;;;;5.42;54.94;98469.72;4982300;28;20051;-80
2023/03/14 11:54:12;;;;;;;0.82;0.82;;;;;;;5.51;54.85;98471.03;4988867;28;20065;-82
2023/03/14 11:56:53;;;;;;;0.80;0.80;;;;;;;5.52;54.73;98467.31;4996516;28;20054;-82
2023/03/14 11:59:28;;;;;;;0.90;0.90;;;;;;;5.50;54.50;98474.75;4988147;28;20078;-80
2023/03/14 12:02:02;;;;;;;0.90;0.90;;;;;;;5.43;54.43;98482.03;4998801;28;20082;-81
2023/03/14 12:05:18;;;;;;;0.80;0.80;;;;;;;5.29;54.70;98464.50;4992555;28;20404;-82